Time;durP1;ratioP1;P1;durP2;ratioP2;P2;SDS_P1;SDS_P2;PMS_P1;PMS_P2;Temp;Humidity;BMP_temperature;BMP_pressure;BME280_temperature;BME280_humidity;BME280_pressure;Samples;Min_cycle;Max_cycle;Signal;HPM_P1;HPM_P2
2023/06/12 00:02:17;;;;;;;0.45;0.38;;;;;;;21.39;56.25;101190.38;4931119;29;20167;-65
2023/06/12 00:04:44;;;;;;;1.48;0.88;;;;;;;21.43;56.06;101188.34;4956167;28;20053;-65
2023/06/12 00:07:10;;;;;;;1.88;0.55;;;;;;;21.34;56.43;101182.63;5004924;28;20041;-65
2023/06/12 00:09:36;;;;;;;2.35;0.70;;;;;;;21.44;55.87;101189.91;5011514;28;20044;-65
2023/06/12 00:12:02;;;;;;;0.50;0.47;;;;;;;21.27;56.52;101190.97;5010788;28;20120;-66
2023/06/12 00:14:28;;;;;;;3.35;0.77;;;;;;;21.25;56.45;101185.13;5015883;28;20040;-66
2023/06/12 00:16:53;;;;;;;1.08;0.68;;;;;;;21.30;56.46;101185.44;5003055;28;20045;-65
2023/06/12 00:19:18;;;;;;;0.93;0.57;;;;;;;21.23;56.84;101182.81;5009324;28;20112;-65
2023/06/12 00:21:44;;;;;;;0.55;0.55;;;;;;;21.19;56.59;101181.28;4999592;28;20042;-66
2023/06/12 00:24:10;;;;;;;0.88;0.60;;;;;;;21.08;56.95;101180.69;5018428;28;20520;-65
2023/06/12 00:26:35;;;;;;;0.80;0.60;;;;;;;21.12;56.75;101175.91;4998875;28;20044;-65
2023/06/12 00:29:01;;;;;;;0.85;0.70;;;;;;;21.03;56.62;101170.16;5017253;28;20199;-65
2023/06/12 00:31:27;;;;;;;1.15;0.60;;;;;;;21.05;56.83;101176.00;5011230;28;20088;-66
2023/06/12 00:33:53;;;;;;;1.23;0.70;;;;;;;21.02;57.25;101176.84;5006750;28;20158;-68
2023/06/12 00:36:22;;;;;;;0.50;0.50;;;;;;;21.04;56.69;101171.75;5016276;28;20126;-67
2023/06/12 00:38:48;;;;;;;1.88;0.68;;;;;;;20.97;56.99;101171.78;5016818;28;20041;-68
2023/06/12 00:41:15;;;;;;;1.15;0.60;;;;;;;20.96;57.29;101173.00;4992832;28;20050;-67
2023/06/12 00:43:40;;;;;;;1.30;0.60;;;;;;;21.04;56.94;101177.22;4971688;28;20101;-68
2023/06/12 00:46:06;;;;;;;1.75;0.60;;;;;;;20.92;56.92;101173.03;5001853;28;20096;-66
2023/06/12 00:48:35;;;;;;;1.27;0.70;;;;;;;20.95;56.95;101177.69;4998354;28;20048;-66
2023/06/12 00:51:01;;;;;;;1.25;0.50;;;;;;;20.61;58.02;101166.78;5009364;28;20085;-66
2023/06/12 00:53:27;;;;;;;1.90;0.65;;;;;;;20.73;58.20;101175.66;5002933;28;20053;-66
2023/06/12 00:55:53;;;;;;;1.25;0.60;;;;;;;20.81;57.49;101168.91;5010971;28;20033;-66
2023/06/12 00:58:18;;;;;;;0.60;0.40;;;;;;;20.79;57.62;101179.47;4989639;28;20058;-66
2023/06/12 01:00:44;;;;;;;0.70;0.52;;;;;;;20.71;57.88;101158.84;5005620;28;20128;-65
2023/06/12 01:03:13;;;;;;;0.60;0.52;;;;;;;20.56;58.14;101164.50;4992833;28;20038;-65
2023/06/12 01:05:42;;;;;;;0.63;0.50;;;;;;;20.57;58.61;101157.84;5010420;28;20030;-66
2023/06/12 01:08:16;;;;;;;0.85;0.50;;;;;;;20.44;58.69;101161.53;5014096;28;20061;-65
2023/06/12 01:10:56;;;;;;;0.65;0.57;;;;;;;20.48;58.84;101173.19;5007804;28;20030;-65
2023/06/12 01:13:22;;;;;;;1.88;0.70;;;;;;;20.49;58.69;101172.81;5000663;28;20042;-65
2023/06/12 01:15:49;;;;;;;0.77;0.60;;;;;;;20.44;59.03;101156.06;4992977;28;20041;-65
2023/06/12 01:18:14;;;;;;;0.80;0.57;;;;;;;20.50;58.72;101168.09;4991815;28;20042;-66
2023/06/12 01:20:42;;;;;;;1.55;0.45;;;;;;;;;;4992424;28;20022;-65
2023/06/12 01:23:19;;;;;;;2.22;0.65;;;;;;;20.54;58.54;101166.88;4977346;28;20038;-65
2023/06/12 01:25:50;;;;;;;1.38;0.60;;;;;;;20.37;58.59;101162.38;4991310;28;20069;-65
2023/06/12 01:28:16;;;;;;;;;;;;;;;20.28;59.40;101161.31;5015733;28;20768;-65
2023/06/12 01:31:13;;;;;;;0.85;0.40;;;;;;;20.27;59.54;101159.75;4996234;28;20515;-66
2023/06/12 01:33:42;;;;;;;0.90;0.60;;;;;;;20.34;59.16;101165.16;5001589;28;20057;-65
2023/06/12 01:36:11;;;;;;;0.60;0.52;;;;;;;20.22;59.20;101160.22;5001050;28;20029;-66
2023/06/12 01:38:40;;;;;;;4.50;0.55;;;;;;;20.23;59.21;101164.50;4994511;28;20112;-65
2023/06/12 01:41:08;;;;;;;4.32;0.80;;;;;;;20.25;59.23;101162.13;4996408;28;20107;-65
2023/06/12 01:43:36;;;;;;;0.57;0.45;;;;;;;20.24;59.57;101168.78;4995561;28;20076;-65
2023/06/12 01:46:03;;;;;;;1.17;0.57;;;;;;;20.26;59.04;101161.75;4994486;28;20049;-66
2023/06/12 01:48:29;;;;;;;0.90;0.63;;;;;;;19.96;59.74;101158.09;4999244;28;20056;-65
2023/06/12 01:50:55;;;;;;;1.00;0.73;;;;;;;19.85;60.95;101152.75;4998026;28;20022;-65
2023/06/12 01:53:21;;;;;;;0.50;0.50;;;;;;;19.93;60.05;101154.25;4995750;28;20037;-67
2023/06/12 01:55:49;;;;;;;1.98;0.50;;;;;;;19.92;60.42;101157.38;4993960;28;20425;-67
2023/06/12 01:58:17;;;;;;;0.98;0.77;;;;;;;19.88;60.46;101153.91;4992705;28;20018;-67
2023/06/12 02:01:01;;;;;;;1.25;0.85;;;;;;;19.76;60.73;101153.22;4994037;28;20117;-67
2023/06/12 02:03:28;;;;;;;0.40;0.35;;;;;;;19.79;60.69;101146.94;5005979;28;20113;-67
2023/06/12 02:05:53;;;;;;;1.55;0.52;;;;;;;19.61;61.08;101151.00;4995739;28;20453;-67
2023/06/12 02:08:19;;;;;;;0.77;0.47;;;;;;;19.57;61.61;101148.31;4994945;28;20108;-68
2023/06/12 02:10:44;;;;;;;1.00;0.52;;;;;;;19.61;61.74;101151.78;5024660;28;20056;-67
2023/06/12 02:13:10;;;;;;;0.82;0.70;;;;;;;19.88;60.75;101145.72;4978650;28;20030;-67
2023/06/12 02:15:36;;;;;;;1.27;0.80;;;;;;;19.96;60.35;101152.63;5003550;28;20042;-68
2023/06/12 02:18:01;;;;;;;0.85;0.70;;;;;;;19.92;60.46;101146.44;5014124;28;20030;-67
2023/06/12 02:20:28;;;;;;;0.65;0.50;;;;;;;19.93;60.51;101142.53;4996646;28;20033;-67
2023/06/12 02:22:54;;;;;;;1.05;0.40;;;;;;;19.94;60.53;101155.78;4995487;28;20034;-67
2023/06/12 02:25:20;;;;;;;0.63;0.60;;;;;;;19.91;60.49;101150.34;5012935;28;20037;-67
2023/06/12 02:27:46;;;;;;;4.30;1.02;;;;;;;19.88;60.38;101151.94;5018094;28;20469;-67
2023/06/12 02:30:12;;;;;;;1.00;0.63;;;;;;;19.91;60.29;101144.88;5024209;28;20022;-68
2023/06/12 02:32:39;;;;;;;4.43;0.75;;;;;;;19.77;60.90;101141.09;5013148;28;20113;-68
2023/06/12 02:35:08;;;;;;;0.75;0.70;;;;;;;19.93;60.10;101143.31;5008869;28;20033;-68
2023/06/12 02:37:35;;;;;;;1.70;0.77;;;;;;;19.88;60.20;101151.19;4982516;28;20025;-68
2023/06/12 02:40:00;;;;;;;0.82;0.63;;;;;;;19.65;60.91;101159.94;5012751;28;20032;-68
2023/06/12 02:42:26;;;;;;;1.27;0.80;;;;;;;19.76;60.69;101155.19;4983997;28;20080;-66
2023/06/12 02:44:52;;;;;;;0.63;0.40;;;;;;;19.90;60.01;101148.81;4994934;28;20386;-66
2023/06/12 02:47:19;;;;;;;1.52;0.90;;;;;;;19.80;60.33;101145.75;4990193;28;20494;-65
2023/06/12 02:49:46;;;;;;;1.85;0.75;;;;;;;19.78;60.58;101142.66;4975552;28;20040;-67
2023/06/12 02:52:18;;;;;;;0.68;0.57;;;;;;;19.85;60.32;101155.47;5000605;28;20041;-66
2023/06/12 02:54:43;;;;;;;0.90;0.52;;;;;;;19.91;59.76;101158.56;4990786;28;20045;-66
2023/06/12 02:57:10;;;;;;;0.65;0.65;;;;;;;19.88;59.94;101164.84;4991981;28;20065;-66
2023/06/12 02:59:35;;;;;;;0.77;0.60;;;;;;;19.90;59.87;101159.75;4975223;28;20025;-66
2023/06/12 03:02:06;;;;;;;1.10;0.85;;;;;;;19.95;59.37;101167.50;4993947;28;20080;-66
2023/06/12 03:04:41;;;;;;;0.93;0.60;;;;;;;19.80;60.10;101159.44;4994418;28;20026;-66
2023/06/12 03:07:08;;;;;;;1.50;0.95;;;;;;;19.79;60.40;101166.09;4974871;28;20025;-67
2023/06/12 03:09:34;;;;;;;0.80;0.70;;;;;;;19.82;60.25;101163.72;4983914;28;20060;-66
2023/06/12 03:12:01;;;;;;;1.05;0.65;;;;;;;19.80;60.07;101167.63;4998646;28;20441;-66
2023/06/12 03:14:28;;;;;;;1.15;0.75;;;;;;;19.80;60.48;101178.56;4995044;28;20037;-66
2023/06/12 03:16:54;;;;;;;1.05;0.60;;;;;;;19.61;60.67;101176.38;5009010;28;20034;-66
2023/06/12 03:19:19;;;;;;;1.65;0.88;;;;;;;19.57;60.97;101172.91;5002568;28;20022;-66
2023/06/12 03:21:45;;;;;;;1.40;0.98;;;;;;;19.57;60.92;101172.91;4997399;28;20060;-66
2023/06/12 03:24:11;;;;;;;2.60;0.85;;;;;;;19.63;60.89;101167.78;4994677;28;20069;-66
2023/06/12 03:26:38;;;;;;;1.08;0.70;;;;;;;19.63;60.61;101168.56;4996325;28;20091;-66
2023/06/12 03:29:04;;;;;;;0.70;0.60;;;;;;;19.40;61.60;101168.34;4995664;28;20042;-66
2023/06/12 03:31:33;;;;;;;0.75;0.65;;;;;;;19.38;61.89;101167.97;4984873;28;20088;-67
2023/06/12 03:34:00;;;;;;;2.42;0.90;;;;;;;19.43;61.51;101167.56;4992237;28;20081;-67
2023/06/12 03:36:25;;;;;;;1.27;0.82;;;;;;;19.43;61.86;101169.53;4991005;28;20050;-68
2023/06/12 03:38:51;;;;;;;0.85;0.65;;;;;;;19.46;61.75;101169.50;4969806;28;20029;-67
2023/06/12 03:41:21;;;;;;;0.82;0.68;;;;;;;19.40;62.05;101170.31;4972626;28;20084;-65
2023/06/12 03:43:47;;;;;;;2.88;0.80;;;;;;;19.48;61.63;101178.06;4993982;28;20026;-66
2023/06/12 03:46:15;;;;;;;1.00;0.60;;;;;;;19.39;62.01;101171.50;4999511;28;20375;-65
2023/06/12 03:48:41;;;;;;;1.15;0.70;;;;;;;19.44;61.77;101168.31;4987297;28;20049;-66
2023/06/12 03:51:07;;;;;;;1.73;0.70;;;;;;;19.41;61.66;101177.34;5021073;28;20490;-67
2023/06/12 03:53:32;;;;;;;0.70;0.50;;;;;;;19.36;62.45;101184.00;4973555;28;20034;-67
2023/06/12 03:55:58;;;;;;;1.50;0.70;;;;;;;19.39;62.52;101180.47;4994437;28;20121;-67
2023/06/12 03:58:26;;;;;;;1.65;0.75;;;;;;;19.51;61.95;101173.75;4987636;28;20434;-67
2023/06/12 04:00:52;;;;;;;0.57;0.57;;;;;;;19.64;61.55;101177.53;4982353;28;20465;-67
2023/06/12 04:03:20;;;;;;;1.80;0.68;;;;;;;19.66;61.23;101177.91;4990224;28;20033;-67
2023/06/12 04:05:50;;;;;;;1.05;0.75;;;;;;;19.65;61.09;101177.13;4988378;28;20054;-67
2023/06/12 04:08:16;;;;;;;0.65;0.50;;;;;;;19.63;61.86;101174.03;5009195;28;20080;-67
2023/06/12 04:10:42;;;;;;;2.45;0.70;;;;;;;19.58;61.53;101179.16;4987310;28;20052;-67
2023/06/12 04:13:09;;;;;;;0.65;0.52;;;;;;;19.42;62.20;101167.94;5007471;28;20041;-67
2023/06/12 04:15:36;;;;;;;0.93;0.50;;;;;;;19.49;62.69;101178.84;4991297;28;20038;-68
2023/06/12 04:18:04;;;;;;;0.90;0.80;;;;;;;19.57;62.29;101183.06;4993187;28;20100;-67
2023/06/12 04:20:32;;;;;;;1.55;1.00;;;;;;;19.50;62.26;101185.84;4986309;28;20022;-66
2023/06/12 04:22:58;;;;;;;0.68;0.47;;;;;;;19.62;61.96;101188.88;4994500;28;20029;-67
2023/06/12 04:25:45;;;;;;;1.27;0.90;;;;;;;19.65;61.96;101188.06;4991723;28;20117;-67
2023/06/12 04:28:13;;;;;;;0.57;0.52;;;;;;;19.64;62.28;101186.53;4950321;28;20040;-64
2023/06/12 04:30:41;;;;;;;1.92;0.80;;;;;;;19.62;62.18;101191.63;4927189;28;20531;-65
2023/06/12 04:33:07;;;;;;;0.82;0.60;;;;;;;19.70;61.93;101195.06;4957153;28;20604;-66
2023/06/12 04:35:34;;;;;;;0.77;0.65;;;;;;;19.80;61.29;101186.00;4946954;28;21498;-66
2023/06/12 04:37:59;;;;;;;1.30;0.80;;;;;;;19.72;61.29;101187.25;4997627;23;20050;-63
2023/06/12 04:40:26;;;;;;;1.90;1.00;;;;;;;19.71;61.28;101189.19;4985289;28;20018;-64
2023/06/12 04:42:56;;;;;;;2.30;1.10;;;;;;;19.89;61.04;101191.00;5008304;28;20379;-64
2023/06/12 04:45:23;;;;;;;1.20;0.85;;;;;;;19.84;60.60;101191.44;4996975;28;20279;-62
2023/06/12 04:47:50;;;;;;;1.35;1.00;;;;;;;19.90;60.63;101201.53;4987108;28;20041;-64
2023/06/12 04:50:15;;;;;;;1.13;0.90;;;;;;;20.00;60.25;101192.44;5008964;28;20422;-63
2023/06/12 04:52:41;;;;;;;2.60;0.55;;;;;;;20.01;60.38;101196.75;4991844;28;20038;-63
2023/06/12 04:55:08;;;;;;;1.63;0.90;;;;;;;20.11;59.55;101193.13;4990805;28;20161;-63
2023/06/12 04:57:36;;;;;;;1.95;1.00;;;;;;;20.15;59.75;101193.84;4989857;28;20030;-64
2023/06/12 05:00:09;;;;;;;1.73;0.98;;;;;;;20.08;59.71;101198.63;5006074;28;20033;-63
2023/06/12 05:02:36;;;;;;;1.25;0.90;;;;;;;20.14;60.17;101191.53;5009811;28;20029;-64
2023/06/12 05:05:05;;;;;;;1.55;1.20;;;;;;;20.18;61.29;101195.00;5000377;28;20065;-64
2023/06/12 05:07:34;;;;;;;1.42;1.00;;;;;;;20.24;61.40;101196.94;4993206;28;20107;-64
2023/06/12 05:10:03;;;;;;;2.80;1.02;;;;;;;20.34;61.41;101196.03;4968276;28;21170;-64
2023/06/12 05:12:30;;;;;;;2.67;1.02;;;;;;;20.55;60.98;101197.75;5006308;28;20036;-63
2023/06/12 05:14:59;;;;;;;4.97;1.10;;;;;;;21.01;59.84;101199.94;4981500;28;20049;-65
2023/06/12 05:17:27;;;;;;;1.65;1.00;;;;;;;21.60;56.73;101206.50;4999900;28;20141;-65
2023/06/12 05:19:52;;;;;;;1.42;1.08;;;;;;;22.15;55.69;101208.72;4998729;28;20065;-65
2023/06/12 05:22:19;;;;;;;1.33;1.02;;;;;;;22.70;53.62;101210.84;4981594;28;20498;-64
2023/06/12 05:24:44;;;;;;;2.03;0.98;;;;;;;22.98;52.22;101212.97;5009935;28;20044;-65
2023/06/12 05:27:10;;;;;;;2.35;1.13;;;;;;;23.36;52.11;101216.09;4988831;28;20119;-64
2023/06/12 05:29:39;;;;;;;2.35;1.17;;;;;;;23.74;51.76;101217.91;4962584;28;20030;-65
2023/06/12 05:32:05;;;;;;;2.50;1.40;;;;;;;24.12;50.83;101212.63;4977395;28;20029;-65
2023/06/12 05:34:32;;;;;;;1.90;0.93;;;;;;;24.31;49.59;101217.25;4973558;28;20795;-65
2023/06/12 05:36:57;;;;;;;1.95;1.20;;;;;;;24.63;49.20;101221.84;5001819;28;20040;-64
2023/06/12 05:39:26;;;;;;;2.20;1.30;;;;;;;24.65;48.72;101222.19;4994507;28;20029;-65
2023/06/12 05:41:52;;;;;;;1.00;0.90;;;;;;;24.70;48.60;101219.66;4998837;28;20038;-64
2023/06/12 05:44:17;;;;;;;2.22;1.15;;;;;;;25.02;47.60;101213.25;5015137;28;20026;-65
2023/06/12 05:46:43;;;;;;;2.20;1.40;;;;;;;25.22;47.24;101213.06;4980303;28;20486;-65
2023/06/12 05:49:08;;;;;;;2.20;1.40;;;;;;;25.33;46.51;101221.75;4975441;28;20042;-64
2023/06/12 05:51:35;;;;;;;2.85;1.33;;;;;;;25.38;46.51;101223.97;4996257;28;20069;-66
2023/06/12 05:54:01;;;;;;;2.65;1.30;;;;;;;25.48;46.85;101226.44;4994410;28;20045;-66
2023/06/12 05:56:27;;;;;;;1.42;1.20;;;;;;;25.55;45.77;101225.44;4984233;28;20478;-65
2023/06/12 05:58:52;;;;;;;3.03;1.38;;;;;;;25.62;46.22;101227.97;4984459;28;20576;-66
2023/06/12 06:01:21;;;;;;;1.35;1.10;;;;;;;25.67;46.23;101230.94;5006187;28;20033;-66
2023/06/12 06:03:57;;;;;;;1.92;1.33;;;;;;;25.86;45.44;101227.13;4982665;28;20033;-65
2023/06/12 06:06:27;;;;;;;1.55;1.23;;;;;;;26.00;44.80;101231.41;4990863;28;20048;-66
2023/06/12 06:08:53;;;;;;;2.63;1.60;;;;;;;25.92;45.08;101232.84;5000751;28;20113;-66
2023/06/12 06:11:20;;;;;;;3.08;1.58;;;;;;;26.00;45.03;101231.41;4999799;28;20040;-66
2023/06/12 06:13:45;;;;;;;2.40;1.30;;;;;;;26.10;44.48;101241.34;4995450;28;20029;-67
2023/06/12 06:16:12;;;;;;;2.35;1.30;;;;;;;26.14;44.75;101238.47;4991526;28;20037;-65
2023/06/12 06:18:39;;;;;;;1.42;1.15;;;;;;;25.96;43.92;101247.31;4993919;28;20120;-66
2023/06/12 06:21:05;;;;;;;2.42;1.10;;;;;;;26.04;44.36;101243.09;4996944;28;20026;-67
2023/06/12 06:23:32;;;;;;;4.30;1.33;;;;;;;26.15;43.48;101249.06;4994451;28;20107;-67
2023/06/12 06:25:58;;;;;;;1.98;1.30;;;;;;;26.19;43.91;101251.72;4976246;28;20117;-66
2023/06/12 06:28:23;;;;;;;1.58;1.20;;;;;;;26.37;44.35;101243.56;5002123;28;20504;-66
2023/06/12 06:30:50;;;;;;;2.25;1.33;;;;;;;26.55;44.00;101255.56;5000696;28;20034;-66
2023/06/12 06:33:16;;;;;;;2.30;1.23;;;;;;;26.40;43.98;101251.72;4991368;28;20033;-66
2023/06/12 06:35:42;;;;;;;4.90;1.45;;;;;;;26.50;44.08;101258.88;4990185;28;20022;-66
2023/06/12 06:38:08;;;;;;;2.53;1.33;;;;;;;26.65;43.98;101264.69;5001392;28;20030;-67
2023/06/12 06:40:34;;;;;;;2.95;1.67;;;;;;;26.58;43.91;101253.88;4992409;28;20702;-64
2023/06/12 06:43:01;;;;;;;2.95;1.10;;;;;;;26.59;43.10;101253.44;5015241;28;20037;-66
2023/06/12 06:45:39;;;;;;;3.85;1.30;;;;;;;26.66;43.37;101267.00;4989582;28;20032;-65
2023/06/12 06:48:05;;;;;;;1.27;1.15;;;;;;;26.77;42.82;101272.91;4979634;28;20434;-66
2023/06/12 06:50:30;;;;;;;1.63;1.00;;;;;;;26.93;42.80;101271.19;4983423;28;20152;-66
2023/06/12 06:52:56;;;;;;;1.70;1.02;;;;;;;26.85;42.25;101272.69;5003841;28;20847;-66
2023/06/12 06:55:23;;;;;;;2.95;1.50;;;;;;;26.97;43.31;101269.06;4994597;28;20116;-66
2023/06/12 06:57:50;;;;;;;2.30;1.23;;;;;;;27.07;42.36;101274.19;5005468;28;21049;-66
2023/06/12 07:00:21;;;;;;;1.88;1.13;;;;;;;27.26;42.77;101286.13;4995188;28;20503;-67
2023/06/12 07:02:48;;;;;;;2.25;1.20;;;;;;;27.33;42.08;101283.13;4996101;28;20149;-66
2023/06/12 07:05:16;;;;;;;1.88;1.15;;;;;;;27.51;42.77;101283.97;4990368;28;20030;-65
2023/06/12 07:07:47;;;;;;;2.72;1.30;;;;;;;27.65;41.21;101279.84;5006895;28;20037;-66
2023/06/12 07:10:13;;;;;;;1.25;1.02;;;;;;;27.57;41.77;101278.59;5000070;28;20036;-66
2023/06/12 07:12:39;;;;;;;2.60;1.30;;;;;;;27.71;42.04;101282.78;4993439;28;20049;-66
2023/06/12 07:15:05;;;;;;;0.80;0.80;;;;;;;27.90;40.62;101282.38;4994168;28;20018;-66
2023/06/12 07:17:31;;;;;;;1.75;1.30;;;;;;;27.83;40.06;101284.69;4994268;28;20028;-66
2023/06/12 07:19:58;;;;;;;1.75;1.27;;;;;;;27.80;39.61;101280.06;5015426;28;20143;-66
2023/06/12 07:22:23;;;;;;;2.33;1.00;;;;;;;27.82;40.32;101281.13;4992537;28;20836;-66
2023/06/12 07:24:49;;;;;;;2.08;1.13;;;;;;;27.99;40.43;101279.66;4970994;28;20034;-66
2023/06/12 07:27:15;;;;;;;1.55;1.10;;;;;;;28.20;38.96;101284.31;5000724;28;20114;-66
2023/06/12 07:29:41;;;;;;;1.92;1.33;;;;;;;28.31;39.44;101283.84;4994695;28;20036;-65
2023/06/12 07:32:09;;;;;;;2.75;1.40;;;;;;;28.35;39.65;101284.47;4991808;28;20042;-66
2023/06/12 07:34:35;;;;;;;1.80;1.20;;;;;;;28.42;38.96;101290.47;4992990;28;20066;-66
2023/06/12 07:37:02;;;;;;;5.15;1.27;;;;;;;28.50;37.55;101294.50;5022422;28;20044;-66
2023/06/12 07:39:28;;;;;;;1.48;1.20;;;;;;;28.24;37.65;101286.94;4992623;28;20044;-65
2023/06/12 07:41:56;;;;;;;1.95;1.20;;;;;;;28.31;38.21;101292.19;4988928;28;20034;-66
2023/06/12 07:44:22;;;;;;;1.83;1.05;;;;;;;28.48;38.06;101277.53;5005115;28;20036;-66
2023/06/12 07:46:48;;;;;;;1.63;1.20;;;;;;;28.66;39.08;101292.66;4976327;28;20049;-65
2023/06/12 07:49:14;;;;;;;2.95;1.40;;;;;;;28.85;37.85;101285.84;4983930;28;20042;-66
2023/06/12 07:51:40;;;;;;;1.45;1.15;;;;;;;28.77;38.60;101285.41;4976207;28;20084;-65
2023/06/12 07:54:12;;;;;;;1.88;1.33;;;;;;;28.77;37.48;101295.72;4992329;28;20038;-65
2023/06/12 07:56:38;;;;;;;2.05;1.45;;;;;;;28.88;36.49;101288.47;4993094;28;20632;-65
2023/06/12 07:59:12;;;;;;;2.03;1.08;;;;;;;28.90;37.53;101288.03;5017503;28;20080;-65
2023/06/12 08:01:41;;;;;;;1.33;0.85;;;;;;;29.08;38.48;101290.72;4992109;28;20051;-64
2023/06/12 08:04:10;;;;;;;1.73;1.58;;;;;;;29.21;37.70;101297.66;4994752;28;20054;-65
2023/06/12 08:06:37;;;;;;;2.25;1.13;;;;;;;29.28;37.01;101300.13;4991372;28;20076;-66
2023/06/12 08:09:03;;;;;;;1.75;1.25;;;;;;;29.36;36.63;101298.53;4989607;28;20413;-65
2023/06/12 08:11:29;;;;;;;1.17;1.08;;;;;;;29.30;35.71;101289.31;4998784;28;20470;-66
2023/06/12 08:13:55;;;;;;;1.10;0.90;;;;;;;29.55;36.04;101290.13;4997481;28;20375;-66
2023/06/12 08:16:23;;;;;;;1.42;1.02;;;;;;;29.67;37.36;101300.28;4993038;28;20135;-66
2023/06/12 08:18:49;;;;;;;1.70;1.23;;;;;;;30.01;36.23;101292.22;4987472;28;20041;-66
2023/06/12 08:21:17;;;;;;;2.88;1.08;;;;;;;30.17;36.84;101293.81;4985028;28;20109;-65
2023/06/12 08:23:43;;;;;;;2.38;1.35;;;;;;;30.34;36.32;101296.97;4991007;28;20143;-66
2023/06/12 08:26:08;;;;;;;1.73;1.20;;;;;;;30.38;35.39;101289.97;4991199;28;20125;-66
2023/06/12 08:28:37;;;;;;;1.83;1.02;;;;;;;30.42;35.44;101298.91;4987049;28;20017;-65
2023/06/12 08:31:04;;;;;;;1.13;0.83;;;;;;;30.58;35.43;101295.69;4994706;28;20045;-66
2023/06/12 08:33:30;;;;;;;1.45;1.00;;;;;;;30.75;35.61;101299.56;5009650;28;20034;-65
2023/06/12 08:35:58;;;;;;;2.33;0.82;;;;;;;30.74;35.96;101303.56;4990738;28;20414;-65
2023/06/12 08:38:23;;;;;;;1.00;0.70;;;;;;;30.95;35.28;101302.44;4995721;28;20522;-66
2023/06/12 08:40:53;;;;;;;2.00;0.82;;;;;;;31.05;34.46;101298.34;5008759;28;20034;-66
2023/06/12 08:43:18;;;;;;;2.13;1.00;;;;;;;31.33;34.77;101292.44;4990042;28;20026;-66
2023/06/12 08:45:50;;;;;;;1.38;1.00;;;;;;;31.52;33.22;101300.13;5008757;28;20111;-66
2023/06/12 08:48:17;;;;;;;1.92;1.10;;;;;;;31.53;33.73;101296.13;5000175;28;20030;-65
2023/06/12 08:50:44;;;;;;;1.50;0.93;;;;;;;31.34;32.64;101288.44;5006568;28;20129;-66
2023/06/12 08:53:10;;;;;;;2.17;1.10;;;;;;;31.33;34.28;101290.44;5005460;28;20037;-66
2023/06/12 08:55:39;;;;;;;1.10;0.70;;;;;;;31.61;33.79;101286.06;5006222;28;20045;-65
2023/06/12 08:58:09;;;;;;;0.93;0.80;;;;;;;31.73;33.63;101293.34;4996594;28;20038;-66
2023/06/12 09:00:35;;;;;;;1.30;1.00;;;;;;;31.80;33.66;101292.94;4999232;28;20033;-66
2023/06/12 09:03:01;;;;;;;0.88;0.70;;;;;;;31.93;33.39;101296.19;5015639;28;20099;-65
2023/06/12 09:05:29;;;;;;;1.17;0.70;;;;;;;32.10;32.94;101296.41;4998994;28;20062;-66
2023/06/12 09:07:57;;;;;;;4.97;0.90;;;;;;;32.00;31.96;101305.41;5008284;28;20048;-66
2023/06/12 09:10:22;;;;;;;2.92;1.08;;;;;;;32.14;31.27;101299.75;5007508;28;20096;-66
2023/06/12 09:12:52;;;;;;;1.27;1.00;;;;;;;31.95;31.50;101306.84;5005602;28;20513;-65
2023/06/12 09:15:19;;;;;;;1.70;0.80;;;;;;;31.49;31.06;101295.53;4992175;28;20049;-66
2023/06/12 09:17:49;;;;;;;0.88;0.88;;;;;;;31.56;32.10;101297.13;5012283;28;20038;-66
2023/06/12 09:20:17;;;;;;;1.30;1.00;;;;;;;31.74;31.69;101297.69;5007675;28;20498;-66
2023/06/12 09:22:44;;;;;;;1.13;1.02;;;;;;;32.09;31.76;101300.47;4998311;28;20285;-65
2023/06/12 09:25:10;;;;;;;1.27;0.70;;;;;;;32.34;32.01;101299.75;5008484;28;20045;-66
2023/06/12 09:27:41;;;;;;;0.93;0.77;;;;;;;32.68;31.80;101290.50;5005630;28;20406;-66
2023/06/12 09:30:08;;;;;;;1.00;0.90;;;;;;;32.87;31.33;101299.31;4996501;28;20049;-67
2023/06/12 09:32:33;;;;;;;1.30;0.77;;;;;;;32.90;29.95;101292.75;5013232;28;20612;-67
2023/06/12 09:35:00;;;;;;;1.00;0.70;;;;;;;32.97;30.25;101291.56;4990491;28;20041;-66
2023/06/12 09:37:26;;;;;;;0.80;0.80;;;;;;;33.02;30.00;101290.84;5005119;28;20044;-66
2023/06/12 09:40:08;;;;;;;1.25;0.70;;;;;;;32.88;29.12;101291.69;5017525;28;20038;-66
2023/06/12 09:42:37;;;;;;;1.17;0.70;;;;;;;33.02;29.47;101302.03;5008906;28;20080;-66
2023/06/12 09:45:11;;;;;;;1.33;0.68;;;;;;;32.95;28.24;101299.66;5004929;28;20036;-67
2023/06/12 09:47:51;;;;;;;1.02;0.77;;;;;;;33.06;29.16;101288.59;5005359;28;20037;-66
2023/06/12 09:50:19;;;;;;;0.50;0.50;;;;;;;32.96;28.51;101301.19;5005890;28;20038;-66
2023/06/12 09:52:54;;;;;;;2.83;0.93;;;;;;;33.24;29.18;101291.78;5021152;28;20386;-66
2023/06/12 09:55:20;;;;;;;1.70;1.20;;;;;;;33.51;28.42;101296.84;5012013;28;20045;-65
2023/06/12 09:57:50;;;;;;;0.95;0.70;;;;;;;33.51;27.99;101302.44;5010399;28;20026;-67
2023/06/12 10:00:17;;;;;;;1.38;0.82;;;;;;;33.56;28.47;101295.38;5013145;28;20026;-65
2023/06/12 10:02:52;;;;;;;1.67;0.80;;;;;;;33.10;28.18;101291.94;4997838;28;20429;-65
2023/06/12 10:05:24;;;;;;;0.70;0.60;;;;;;;33.47;27.46;101296.31;5008508;28;20042;-65
2023/06/12 10:07:54;;;;;;;2.05;0.85;;;;;;;33.69;27.17;101295.69;5006662;28;20038;-65
2023/06/12 10:10:22;;;;;;;0.70;0.70;;;;;;;33.88;26.54;101310.03;5013799;28;20029;-66
2023/06/12 10:12:48;;;;;;;1.27;0.68;;;;;;;33.97;26.63;101287.44;4990910;28;20046;-66
2023/06/12 10:15:15;;;;;;;1.13;1.00;;;;;;;33.94;26.51;101288.44;4990235;28;20029;-66
2023/06/12 10:18:01;;;;;;;1.17;0.80;;;;;;;34.03;26.56;101302.25;5008452;28;20018;-65
2023/06/12 10:20:26;;;;;;;1.10;0.60;;;;;;;33.80;25.62;101303.38;4951328;28;20047;-66
2023/06/12 10:22:54;;;;;;;1.00;0.70;;;;;;;33.58;26.43;101296.41;4948673;28;20138;-66
2023/06/12 10:25:21;;;;;;;0.80;0.57;;;;;;;34.08;26.05;101299.50;4951895;28;20043;-67
2023/06/12 10:27:47;;;;;;;0.50;0.40;;;;;;;34.31;25.24;101291.94;4938465;29;20118;-65
2023/06/12 10:30:16;;;;;;;0.93;0.60;;;;;;;34.26;26.23;101298.28;4949602;28;20130;-66
2023/06/12 10:32:45;;;;;;;0.55;0.55;;;;;;;34.28;25.78;101296.50;4937377;29;20051;-66
2023/06/12 10:35:33;;;;;;;0.90;0.63;;;;;;;34.52;25.85;101293.28;4936849;28;20039;-66
2023/06/12 10:37:59;;;;;;;1.95;0.90;;;;;;;34.57;25.07;101292.56;4990670;22;20057;-66
2023/06/12 10:40:25;;;;;;;0.70;0.55;;;;;;;34.25;24.56;101279.94;5030525;28;20040;-65
2023/06/12 10:42:53;;;;;;;1.08;0.60;;;;;;;34.18;25.86;101277.66;5020745;28;20079;-65
2023/06/12 10:45:23;;;;;;;1.42;0.85;;;;;;;34.41;24.68;101282.03;5029599;28;20497;-66
2023/06/12 10:48:07;;;;;;;0.98;0.60;;;;;;;34.50;25.42;101279.03;5032608;28;20533;-66
2023/06/12 10:50:33;;;;;;;1.20;0.70;;;;;;;34.73;25.11;101274.25;5007003;28;20026;-65
2023/06/12 10:53:08;;;;;;;1.92;0.73;;;;;;;34.63;24.84;101261.75;5012487;28;20030;-66
2023/06/12 10:55:35;;;;;;;0.77;0.65;;;;;;;34.48;25.39;101279.53;5014770;28;20034;-65
2023/06/12 10:58:03;;;;;;;0.73;0.73;;;;;;;34.90;24.33;101266.63;5010374;28;20052;-67
2023/06/12 11:00:33;;;;;;;0.93;0.90;;;;;;;35.13;23.54;101270.97;4995453;28;20041;-66
2023/06/12 11:03:07;;;;;;;1.02;0.50;;;;;;;35.01;23.72;101270.22;5014644;28;20103;-66
2023/06/12 11:05:34;;;;;;;1.90;0.45;;;;;;;35.03;24.16;101264.09;5007338;28;20032;-65
2023/06/12 11:08:05;;;;;;;0.93;0.68;;;;;;;35.03;24.11;101267.69;5009525;28;20026;-65
2023/06/12 11:10:32;;;;;;;0.95;0.65;;;;;;;34.84;24.12;101258.22;5011049;28;20095;-66
2023/06/12 11:12:58;;;;;;;1.75;0.50;;;;;;;34.83;23.76;101262.28;5015974;28;20044;-65
2023/06/12 11:15:24;;;;;;;0.70;0.55;;;;;;;34.79;23.71;101258.97;5009703;28;20029;-66
2023/06/12 11:17:51;;;;;;;0.47;0.47;;;;;;;35.06;24.26;101263.06;5002755;28;20436;-66
2023/06/12 11:20:20;;;;;;;1.13;0.70;;;;;;;34.69;23.33;101256.94;5012826;28;20109;-65
2023/06/12 11:22:47;;;;;;;4.05;1.63;;;;;;;34.57;24.35;101249.78;5013831;28;20045;-65
2023/06/12 11:25:13;;;;;;;0.82;0.70;;;;;;;34.81;23.92;101250.81;5010272;28;20109;-65
2023/06/12 11:27:39;;;;;;;0.80;0.65;;;;;;;34.94;24.86;101251.06;5014111;28;20110;-65
2023/06/12 11:30:12;;;;;;;0.90;0.60;;;;;;;35.10;24.21;101247.53;5010084;28;20478;-66